sensor_id;sensor_type;location;lat;lon;timestamp;pressure;altitude;pressure_sealevel;temperature;humidity
61128;BME280;47013;42.664;23.242;2023-01-25T00:02:10;95078.00;;;1.30;100.00
61128;BME280;47013;42.664;23.242;2023-01-25T00:04:35;95073.31;;;1.27;100.00
61128;BME280;47013;42.664;23.242;2023-01-25T00:07:00;95078.81;;;1.30;100.00
61128;BME280;47013;42.664;23.242;2023-01-25T00:09:26;95081.00;;;1.28;100.00
61128;BME280;47013;42.664;23.242;2023-01-25T00:11:51;95076.75;;;1.27;100.00
61128;BME280;47013;42.664;23.242;2023-01-25T00:14:17;95074.41;;;1.26;100.00
61128;BME280;47013;42.664;23.242;2023-01-25T00:16:42;95068.28;;;1.16;100.00
61128;BME280;47013;42.664;23.242;2023-01-25T00:19:08;95070.34;;;1.20;100.00
61128;BME280;47013;42.664;23.242;2023-01-25T00:21:34;95076.78;;;1.18;100.00
61128;BME280;47013;42.664;23.242;2023-01-25T00:23:59;95077.25;;;1.21;100.00
61128;BME280;47013;42.664;23.242;2023-01-25T00:26:25;95079.59;;;1.22;100.00
61128;BME280;47013;42.664;23.242;2023-01-25T00:28:50;95074.72;;;1.24;100.00
61128;BME280;47013;42.664;23.242;2023-01-25T00:31:20;95081.31;;;1.27;100.00
61128;BME280;47013;42.664;23.242;2023-01-25T00:33:55;95073.63;;;1.25;100.00
61128;BME280;47013;42.664;23.242;2023-01-25T00:36:26;95076.00;;;1.18;100.00
61128;BME280;47013;42.664;23.242;2023-01-25T00:38:52;95080.25;;;1.10;100.00
61128;BME280;47013;42.664;23.242;2023-01-25T00:41:17;95082.59;;;1.12;100.00
61128;BME280;47013;42.664;23.242;2023-01-25T00:43:42;95071.91;;;1.12;100.00
61128;BME280;47013;42.664;23.242;2023-01-25T00:46:08;95076.00;;;1.18;100.00
61128;BME280;47013;42.664;23.242;2023-01-25T00:48:33;95078.66;;;1.27;100.00
61128;BME280;47013;42.664;23.242;2023-01-25T00:51:01;95079.59;;;1.31;100.00
61128;BME280;47013;42.664;23.242;2023-01-25T00:53:26;95079.88;;;1.38;100.00
61128;BME280;47013;42.664;23.242;2023-01-25T00:55:52;95079.72;;;1.34;100.00
61128;BME280;47013;42.664;23.242;2023-01-25T00:58:17;95080.66;;;1.38;100.00
61128;BME280;47013;42.664;23.242;2023-01-25T01:00:42;95077.22;;;1.29;100.00
61128;BME280;47013;42.664;23.242;2023-01-25T01:03:07;95072.97;;;1.28;100.00
61128;BME280;47013;42.664;23.242;2023-01-25T01:05:33;95071.75;;;1.17;100.00
61128;BME280;47013;42.664;23.242;2023-01-25T01:08:00;95077.91;;;1.09;100.00
61128;BME280;47013;42.664;23.242;2023-01-25T01:10:25;95081.81;;;1.11;100.00
61128;BME280;47013;42.664;23.242;2023-01-25T01:12:50;95083.38;;;1.21;100.00
61128;BME280;47013;42.664;23.242;2023-01-25T01:15:15;95081.50;;;1.22;100.00
61128;BME280;47013;42.664;23.242;2023-01-25T01:17:41;95081.63;;;1.25;100.00
61128;BME280;47013;42.664;23.242;2023-01-25T01:20:06;95073.75;;;1.29;100.00
61128;BME280;47013;42.664;23.242;2023-01-25T01:22:31;95072.66;;;1.30;100.00
61128;BME280;47013;42.664;23.242;2023-01-25T01:24:57;95070.47;;;1.32;100.00
61128;BME280;47013;42.664;23.242;2023-01-25T01:27:22;95067.63;;;1.28;100.00
61128;BME280;47013;42.664;23.242;2023-01-25T01:29:47;95059.16;;;1.26;100.00
61128;BME280;47013;42.664;23.242;2023-01-25T01:32:12;95063.06;;;1.29;100.00
61128;BME280;47013;42.664;23.242;2023-01-25T01:34:37;95061.34;;;1.33;100.00
61128;BME280;47013;42.664;23.242;2023-01-25T01:37:03;95059.47;;;1.33;100.00
61128;BME280;47013;42.664;23.242;2023-01-25T01:39:28;95060.56;;;1.32;100.00
61128;BME280;47013;42.664;23.242;2023-01-25T01:41:53;95066.38;;;1.26;100.00
61128;BME280;47013;42.664;23.242;2023-01-25T01:44:19;95057.97;;;1.06;100.00
61128;BME280;47013;42.664;23.242;2023-01-25T01:46:55;95052.63;;;1.06;100.00
61128;BME280;47013;42.664;23.242;2023-01-25T01:49:23;95051.69;;;0.94;100.00
61128;BME280;47013;42.664;23.242;2023-01-25T01:54:26;95050.28;;;0.87;100.00
61128;BME280;47013;42.664;23.242;2023-01-25T01:57:12;95046.81;;;0.87;100.00
61128;BME280;47013;42.664;23.242;2023-01-25T01:59:55;95055.31;;;0.80;100.00
61128;BME280;47013;42.664;23.242;2023-01-25T02:02:22;95048.25;;;0.84;100.00
61128;BME280;47013;42.664;23.242;2023-01-25T02:04:48;95056.88;;;0.90;100.00
61128;BME280;47013;42.664;23.242;2023-01-25T02:07:26;95054.53;;;0.80;100.00
61128;BME280;47013;42.664;23.242;2023-01-25T02:09:53;95058.00;;;0.80;100.00
61128;BME280;47013;42.664;23.242;2023-01-25T02:12:19;95052.34;;;0.73;100.00
61128;BME280;47013;42.664;23.242;2023-01-25T02:14:48;95048.41;;;0.79;100.00
61128;BME280;47013;42.664;23.242;2023-01-25T02:17:14;95051.06;;;0.88;100.00
61128;BME280;47013;42.664;23.242;2023-01-25T02:19:45;95049.03;;;0.94;100.00
61128;BME280;47013;42.664;23.242;2023-01-25T02:22:15;95051.84;;;0.97;100.00
61128;BME280;47013;42.664;23.242;2023-01-25T02:24:48;95051.84;;;1.06;100.00
61128;BME280;47013;42.664;23.242;2023-01-25T02:27:16;95056.03;;;1.15;100.00
61128;BME280;47013;42.664;23.242;2023-01-25T02:29:43;95050.38;;;1.17;100.00
61128;BME280;47013;42.664;23.242;2023-01-25T02:32:08;95057.44;;;1.22;100.00
61128;BME280;47013;42.664;23.242;2023-01-25T02:34:34;95050.34;;;1.26;100.00
61128;BME280;47013;42.664;23.242;2023-01-25T02:37:00;95046.13;;;1.25;100.00
61128;BME280;47013;42.664;23.242;2023-01-25T02:39:25;95055.06;;;1.29;100.00
61128;BME280;47013;42.664;23.242;2023-01-25T02:41:51;95045.66;;;1.23;100.00
61128;BME280;47013;42.664;23.242;2023-01-25T02:44:19;95043.31;;;1.12;100.00
61128;BME280;47013;42.664;23.242;2023-01-25T02:46:45;95039.88;;;1.12;100.00
61128;BME280;47013;42.664;23.242;2023-01-25T02:49:12;95040.19;;;1.10;100.00
61128;BME280;47013;42.664;23.242;2023-01-25T02:51:38;95045.22;;;1.12;100.00
61128;BME280;47013;42.664;23.242;2023-01-25T02:54:05;95055.44;;;1.10;99.59
61128;BME280;47013;42.664;23.242;2023-01-25T02:56:31;95045.84;;;1.09;100.00
61128;BME280;47013;42.664;23.242;2023-01-25T02:58:56;95047.88;;;1.12;100.00
61128;BME280;47013;42.664;23.242;2023-01-25T03:01:22;95049.44;;;1.13;99.90
61128;BME280;47013;42.664;23.242;2023-01-25T03:03:47;95052.75;;;1.18;98.36
61128;BME280;47013;42.664;23.242;2023-01-25T03:06:13;95051.19;;;1.09;98.87
61128;BME280;47013;42.664;23.242;2023-01-25T03:08:38;95044.94;;;1.05;99.67
61128;BME280;47013;42.664;23.242;2023-01-25T03:11:04;95046.66;;;1.01;99.41
61128;BME280;47013;42.664;23.242;2023-01-25T03:13:30;95056.22;;;1.02;100.00
61128;BME280;47013;42.664;23.242;2023-01-25T03:16:13;95049.94;;;1.06;100.00
61128;BME280;47013;42.664;23.242;2023-01-25T03:18:38;95043.81;;;1.06;99.87
61128;BME280;47013;42.664;23.242;2023-01-25T03:23:31;95046.97;;;1.08;97.48
61128;BME280;47013;42.664;23.242;2023-01-25T03:28:34;95042.88;;;1.10;98.59
61128;BME280;47013;42.664;23.242;2023-01-25T03:30:59;95044.28;;;1.08;98.75
61128;BME280;47013;42.664;23.242;2023-01-25T03:33:24;95043.19;;;1.00;98.31
61128;BME280;47013;42.664;23.242;2023-01-25T03:35:53;95046.66;;;1.01;98.95
61128;BME280;47013;42.664;23.242;2023-01-25T03:38:18;95050.88;;;1.02;99.31
61128;BME280;47013;42.664;23.242;2023-01-25T03:40:44;95047.09;;;1.03;99.15
61128;BME280;47013;42.664;23.242;2023-01-25T03:43:10;95045.22;;;1.03;99.04
61128;BME280;47013;42.664;23.242;2023-01-25T03:45:35;95039.09;;;1.03;99.52
61128;BME280;47013;42.664;23.242;2023-01-25T03:48:00;95039.41;;;1.10;98.96
61128;BME280;47013;42.664;23.242;2023-01-25T03:50:26;95037.84;;;1.09;98.73
61128;BME280;47013;42.664;23.242;2023-01-25T03:52:51;95028.41;;;1.03;98.54
61128;BME280;47013;42.664;23.242;2023-01-25T03:55:23;95031.25;;;0.98;99.77
61128;BME280;47013;42.664;23.242;2023-01-25T03:57:48;95028.59;;;0.98;99.78
61128;BME280;47013;42.664;23.242;2023-01-25T04:00:14;95023.25;;;0.98;100.00
61128;BME280;47013;42.664;23.242;2023-01-25T04:02:39;95028.78;;;0.93;99.71
61128;BME280;47013;42.664;23.242;2023-01-25T04:05:04;95021.22;;;0.95;100.00
61128;BME280;47013;42.664;23.242;2023-01-25T04:07:30;95030.16;;;0.90;100.00
61128;BME280;47013;42.664;23.242;2023-01-25T04:09:55;95028.13;;;0.87;100.00
61128;BME280;47013;42.664;23.242;2023-01-25T04:12:20;95025.47;;;0.87;100.00
61128;BME280;47013;42.664;23.242;2023-01-25T04:14:45;95029.69;;;0.88;100.00
61128;BME280;47013;42.664;23.242;2023-01-25T04:17:11;95027.81;;;0.88;100.00
61128;BME280;47013;42.664;23.242;2023-01-25T04:19:37;95025.94;;;0.89;100.00
61128;BME280;47013;42.664;23.242;2023-01-25T04:22:02;95026.88;;;0.93;100.00
61128;BME280;47013;42.664;23.242;2023-01-25T04:24:27;95019.66;;;0.94;100.00
61128;BME280;47013;42.664;23.242;2023-01-25T04:26:52;95024.53;;;0.92;100.00
61128;BME280;47013;42.664;23.242;2023-01-25T04:29:18;95018.38;;;1.00;100.00
61128;BME280;47013;42.664;23.242;2023-01-25T04:31:43;95023.25;;;0.98;100.00
61128;BME280;47013;42.664;23.242;2023-01-25T04:34:08;95028.13;;;1.04;100.00
61128;BME280;47013;42.664;23.242;2023-01-25T04:36:33;95035.03;;;1.05;100.00
61128;BME280;47013;42.664;23.242;2023-01-25T04:38:58;95035.63;;;1.02;100.00
61128;BME280;47013;42.664;23.242;2023-01-25T04:41:24;95035.31;;;1.04;100.00
61128;BME280;47013;42.664;23.242;2023-01-25T04:43:53;95037.06;;;1.00;100.00
61128;BME280;47013;42.664;23.242;2023-01-25T04:46:18;95032.03;;;0.98;100.00
61128;BME280;47013;42.664;23.242;2023-01-25T04:48:43;95037.69;;;1.05;100.00
61128;BME280;47013;42.664;23.242;2023-01-25T04:51:08;95040.38;;;1.05;100.00
61128;BME280;47013;42.664;23.242;2023-01-25T04:53:34;95032.50;;;1.00;100.00
61128;BME280;47013;42.664;23.242;2023-01-25T04:55:59;95037.72;;;0.97;100.00
61128;BME280;47013;42.664;23.242;2023-01-25T04:58:24;95033.00;;;0.94;100.00
61128;BME280;47013;42.664;23.242;2023-01-25T05:00:49;95037.09;;;0.82;100.00
61128;BME280;47013;42.664;23.242;2023-01-25T05:03:15;95030.19;;;0.64;100.00
61128;BME280;47013;42.664;23.242;2023-01-25T05:05:43;95036.63;;;0.63;100.00
61128;BME280;47013;42.664;23.242;2023-01-25T05:08:09;95032.09;;;0.64;100.00
61128;BME280;47013;42.664;23.242;2023-01-25T05:10:34;95037.59;;;0.67;100.00
61128;BME280;47013;42.664;23.242;2023-01-25T05:12:59;95038.38;;;0.68;100.00
61128;BME280;47013;42.664;23.242;2023-01-25T05:15:26;95038.66;;;0.75;99.86
61128;BME280;47013;42.664;23.242;2023-01-25T05:17:51;95036.50;;;0.68;99.68
61128;BME280;47013;42.664;23.242;2023-01-25T05:20:17;95029.72;;;0.71;99.10
61128;BME280;47013;42.664;23.242;2023-01-25T05:22:42;95026.28;;;0.70;99.13
61128;BME280;47013;42.664;23.242;2023-01-25T05:25:07;95030.19;;;0.73;99.94
61128;BME280;47013;42.664;23.242;2023-01-25T05:27:52;95023.13;;;0.77;98.66
61128;BME280;47013;42.664;23.242;2023-01-25T05:30:18;95032.88;;;0.73;99.09
61128;BME280;47013;42.664;23.242;2023-01-25T05:32:43;95025.31;;;0.75;99.46
61128;BME280;47013;42.664;23.242;2023-01-25T05:35:08;95032.41;;;0.71;99.41
61128;BME280;47013;42.664;23.242;2023-01-25T05:37:33;95031.63;;;0.70;98.21
61128;BME280;47013;42.664;23.242;2023-01-25T05:39:59;95032.09;;;0.72;98.35
61128;BME280;47013;42.664;23.242;2023-01-25T05:42:25;95029.41;;;0.72;98.50
61128;BME280;47013;42.664;23.242;2023-01-25T05:44:50;95031.44;;;0.75;97.73
61128;BME280;47013;42.664;23.242;2023-01-25T05:47:16;95032.53;;;0.83;98.35
61128;BME280;47013;42.664;23.242;2023-01-25T05:49:41;95031.31;;;0.80;97.88
61128;BME280;47013;42.664;23.242;2023-01-25T05:52:08;95033.66;;;0.82;96.95
61128;BME280;47013;42.664;23.242;2023-01-25T05:54:36;95041.03;;;0.85;96.52
61128;BME280;47013;42.664;23.242;2023-01-25T05:57:01;95031.13;;;0.77;96.89
61128;BME280;47013;42.664;23.242;2023-01-25T05:59:27;95033.97;;;0.72;97.60
61128;BME280;47013;42.664;23.242;2023-01-25T06:01:52;95037.25;;;0.77;97.80
61128;BME280;47013;42.664;23.242;2023-01-25T06:04:17;95043.09;;;0.79;97.91
61128;BME280;47013;42.664;23.242;2023-01-25T06:06:42;95038.53;;;0.80;96.86
61128;BME280;47013;42.664;23.242;2023-01-25T06:09:11;95045.56;;;0.84;97.05
61128;BME280;47013;42.664;23.242;2023-01-25T06:11:36;95041.50;;;0.78;96.16
61128;BME280;47013;42.664;23.242;2023-01-25T06:14:01;95039.78;;;0.82;96.95
61128;BME280;47013;42.664;23.242;2023-01-25T06:16:26;95048.72;;;0.78;96.49
61128;BME280;47013;42.664;23.242;2023-01-25T06:18:52;95051.69;;;0.76;96.13
61128;BME280;47013;42.664;23.242;2023-01-25T06:21:17;95052.03;;;0.66;95.82
61128;BME280;47013;42.664;23.242;2023-01-25T06:23:42;95053.78;;;0.53;96.31
61128;BME280;47013;42.664;23.242;2023-01-25T06:26:09;95052.97;;;0.62;97.44
61128;BME280;47013;42.664;23.242;2023-01-25T06:28:35;95052.50;;;0.59;97.04
61128;BME280;47013;42.664;23.242;2023-01-25T06:31:12;95046.84;;;0.61;98.18
61128;BME280;47013;42.664;23.242;2023-01-25T06:33:37;95043.41;;;0.61;98.20
61128;BME280;47013;42.664;23.242;2023-01-25T06:36:03;95046.69;;;0.49;98.28
61128;BME280;47013;42.664;23.242;2023-01-25T06:38:30;95052.03;;;0.49;98.17
61128;BME280;47013;42.664;23.242;2023-01-25T06:40:59;95051.25;;;0.48;98.29
61128;BME280;47013;42.664;23.242;2023-01-25T06:43:25;95043.38;;;0.52;98.15
61128;BME280;47013;42.664;23.242;2023-01-25T06:45:50;95046.38;;;0.50;98.01
61128;BME280;47013;42.664;23.242;2023-01-25T06:48:15;95047.16;;;0.51;98.09
61128;BME280;47013;42.664;23.242;2023-01-25T06:50:41;95049.03;;;0.50;98.22
61128;BME280;47013;42.664;23.242;2023-01-25T06:53:06;95043.38;;;0.52;98.04
61128;BME280;47013;42.664;23.242;2023-01-25T06:55:31;95042.47;;;0.56;99.12
61128;BME280;47013;42.664;23.242;2023-01-25T06:57:58;95032.41;;;0.53;97.44
61128;BME280;47013;42.664;23.242;2023-01-25T07:00:24;95036.97;;;0.53;97.96
61128;BME280;47013;42.664;23.242;2023-01-25T07:02:49;95037.13;;;0.48;98.00
61128;BME280;47013;42.664;23.242;2023-01-25T07:05:14;95036.19;;;0.44;97.98
61128;BME280;47013;42.664;23.242;2023-01-25T07:07:43;95041.19;;;0.45;98.21
61128;BME280;47013;42.664;23.242;2023-01-25T07:10:08;95039.94;;;0.51;98.53
61128;BME280;47013;42.664;23.242;2023-01-25T07:12:33;95036.97;;;0.53;98.90
61128;BME280;47013;42.664;23.242;2023-01-25T07:14:59;95043.25;;;0.57;98.85
61128;BME280;47013;42.664;23.242;2023-01-25T07:17:24;95042.91;;;0.50;98.70
61128;BME280;47013;42.664;23.242;2023-01-25T07:19:49;95045.13;;;0.48;99.30
61128;BME280;47013;42.664;23.242;2023-01-25T07:22:14;95043.38;;;0.52;99.19
61128;BME280;47013;42.664;23.242;2023-01-25T07:24:41;95045.28;;;0.51;99.42
61128;BME280;47013;42.664;23.242;2023-01-25T07:27:13;95043.09;;;0.53;99.29
61128;BME280;47013;42.664;23.242;2023-01-25T07:29:38;95048.41;;;0.62;99.14
61128;BME280;47013;42.664;23.242;2023-01-25T07:32:05;95049.66;;;0.65;99.55
61128;BME280;47013;42.664;23.242;2023-01-25T07:34:30;95056.41;;;0.62;98.90
61128;BME280;47013;42.664;23.242;2023-01-25T07:36:55;95053.00;;;0.53;98.97
61128;BME280;47013;42.664;23.242;2023-01-25T07:39:21;95059.25;;;0.57;99.39
61128;BME280;47013;42.664;23.242;2023-01-25T07:41:46;95062.84;;;0.61;100.00
61128;BME280;47013;42.664;23.242;2023-01-25T07:44:11;95065.53;;;0.61;99.25
61128;BME280;47013;42.664;23.242;2023-01-25T07:46:37;95055.63;;;0.62;98.83
61128;BME280;47013;42.664;23.242;2023-01-25T07:49:02;95061.28;;;0.60;98.64
61128;BME280;47013;42.664;23.242;2023-01-25T07:51:27;95060.84;;;0.67;98.50
61128;BME280;47013;42.664;23.242;2023-01-25T07:54:02;95065.22;;;0.63;98.85
61128;BME280;47013;42.664;23.242;2023-01-25T07:56:32;95067.41;;;0.69;99.24
61128;BME280;47013;42.664;23.242;2023-01-25T07:58:58;95051.88;;;0.71;99.35
61128;BME280;47013;42.664;23.242;2023-01-25T08:01:24;95054.22;;;0.73;99.63
61128;BME280;47013;42.664;23.242;2023-01-25T08:03:50;95058.47;;;0.65;98.33
61128;BME280;47013;42.664;23.242;2023-01-25T08:06:16;95055.50;;;0.67;99.41
61128;BME280;47013;42.664;23.242;2023-01-25T08:08:42;95049.03;;;0.76;100.00
61128;BME280;47013;42.664;23.242;2023-01-25T08:13:33;95053.16;;;0.65;100.00
61128;BME280;47013;42.664;23.242;2023-01-25T08:15:58;95058.31;;;0.70;100.00
61128;BME280;47013;42.664;23.242;2023-01-25T08:18:24;95051.09;;;0.71;100.00
61128;BME280;47013;42.664;23.242;2023-01-25T08:20:49;95055.97;;;0.69;100.00
61128;BME280;47013;42.664;23.242;2023-01-25T08:23:14;95056.44;;;0.71;100.00
61128;BME280;47013;42.664;23.242;2023-01-25T08:25:40;95056.88;;;0.73;100.00
61128;BME280;47013;42.664;23.242;2023-01-25T08:28:05;95055.47;;;0.75;100.00
61128;BME280;47013;42.664;23.242;2023-01-25T08:30:31;95052.16;;;0.87;100.00
61128;BME280;47013;42.664;23.242;2023-01-25T08:32:57;95051.09;;;0.71;99.61
61128;BME280;47013;42.664;23.242;2023-01-25T08:35:22;95043.72;;;0.68;100.00
61128;BME280;47013;42.664;23.242;2023-01-25T08:37:47;95043.53;;;0.73;100.00
61128;BME280;47013;42.664;23.242;2023-01-25T08:40:12;95044.19;;;0.70;100.00
61128;BME280;47013;42.664;23.242;2023-01-25T08:42:38;95043.88;;;0.71;100.00
61128;BME280;47013;42.664;23.242;2023-01-25T08:45:03;95050.78;;;0.72;100.00
61128;BME280;47013;42.664;23.242;2023-01-25T08:47:29;95045.56;;;0.76;100.00
61128;BME280;47013;42.664;23.242;2023-01-25T08:49:54;95044.00;;;0.75;100.00
61128;BME280;47013;42.664;23.242;2023-01-25T08:52:19;95036.78;;;0.75;100.00
61128;BME280;47013;42.664;23.242;2023-01-25T08:54:45;95040.25;;;0.84;100.00
61128;BME280;47013;42.664;23.242;2023-01-25T08:57:10;95032.09;;;0.81;100.00
61128;BME280;47013;42.664;23.242;2023-01-25T08:59:35;95044.31;;;0.82;100.00
61128;BME280;47013;42.664;23.242;2023-01-25T09:02:01;95046.69;;;0.83;100.00
61128;BME280;47013;42.664;23.242;2023-01-25T09:04:26;95041.97;;;0.80;100.00
61128;BME280;47013;42.664;23.242;2023-01-25T09:06:52;95045.56;;;0.84;100.00
61128;BME280;47013;42.664;23.242;2023-01-25T09:09:18;95046.03;;;0.78;100.00
61128;BME280;47013;42.664;23.242;2023-01-25T09:11:43;95052.03;;;0.83;100.00
61128;BME280;47013;42.664;23.242;2023-01-25T09:14:08;95041.50;;;0.78;100.00
61128;BME280;47013;42.664;23.242;2023-01-25T09:16:33;95037.72;;;0.88;100.00
61128;BME280;47013;42.664;23.242;2023-01-25T09:19:00;95036.47;;;0.94;100.00
61128;BME280;47013;42.664;23.242;2023-01-25T09:21:26;95029.06;;;1.00;100.00
61128;BME280;47013;42.664;23.242;2023-01-25T09:23:51;95025.28;;;1.01;100.00
61128;BME280;47013;42.664;23.242;2023-01-25T09:26:17;95026.09;;;0.93;100.00
61128;BME280;47013;42.664;23.242;2023-01-25T09:28:45;95018.56;;;0.95;100.00
61128;BME280;47013;42.664;23.242;2023-01-25T09:31:11;95018.38;;;1.00;100.00
61128;BME280;47013;42.664;23.242;2023-01-25T09:33:37;95014.59;;;1.09;100.00
61128;BME280;47013;42.664;23.242;2023-01-25T09:36:02;95014.13;;;1.07;100.00
61128;BME280;47013;42.664;23.242;2023-01-25T09:38:28;95002.34;;;0.91;100.00
61128;BME280;47013;42.664;23.242;2023-01-25T09:45:46;94991.72;;;0.82;100.00
61128;BME280;47013;42.664;23.242;2023-01-25T09:51:10;94980.53;;;0.98;100.00
61128;BME280;47013;42.664;23.242;2023-01-25T09:53:38;94985.25;;;0.92;100.00
61128;BME280;47013;42.664;23.242;2023-01-25T09:56:24;94983.06;;;0.94;100.00
61128;BME280;47013;42.664;23.242;2023-01-25T09:58:51;94985.88;;;0.89;100.00
61128;BME280;47013;42.664;23.242;2023-01-25T10:01:25;94980.13;;;0.78;100.00
61128;BME280;47013;42.664;23.242;2023-01-25T10:06:16;94967.66;;;0.91;100.00
61128;BME280;47013;42.664;23.242;2023-01-25T10:09:01;94960.41;;;1.00;100.00
61128;BME280;47013;42.664;23.242;2023-01-25T10:11:32;94962.91;;;1.05;100.00
61128;BME280;47013;42.664;23.242;2023-01-25T10:13:58;94950.34;;;1.06;100.00
61128;BME280;47013;42.664;23.242;2023-01-25T10:16:25;94958.19;;;1.11;100.00
61128;BME280;47013;42.664;23.242;2023-01-25T10:18:54;94947.31;;;1.16;100.00
61128;BME280;47013;42.664;23.242;2023-01-25T10:21:25;94951.13;;;1.06;100.00
61128;BME280;47013;42.664;23.242;2023-01-25T10:26:27;94940.59;;;1.10;100.00
61128;BME280;47013;42.664;23.242;2023-01-25T10:29:13;94939.00;;;1.17;100.00
61128;BME280;47013;42.664;23.242;2023-01-25T10:31:50;94939.47;;;1.11;100.00
61128;BME280;47013;42.664;23.242;2023-01-25T10:34:27;94939.78;;;1.18;100.00
61128;BME280;47013;42.664;23.242;2023-01-25T10:36:54;94933.16;;;1.15;100.00
61128;BME280;47013;42.664;23.242;2023-01-25T10:39:20;94929.38;;;1.16;100.00
61128;BME280;47013;42.664;23.242;2023-01-25T10:41:48;94922.47;;;1.15;100.00
61128;BME280;47013;42.664;23.242;2023-01-25T10:44:14;94922.53;;;1.07;100.00
61128;BME280;47013;42.664;23.242;2023-01-25T10:46:56;94922.06;;;1.05;100.00
61128;BME280;47013;42.664;23.242;2023-01-25T10:52:39;94908.66;;;1.13;100.00
61128;BME280;47013;42.664;23.242;2023-01-25T10:55:14;94906.78;;;1.14;100.00
61128;BME280;47013;42.664;23.242;2023-01-25T10:57:49;94896.19;;;1.26;100.00
61128;BME280;47013;42.664;23.242;2023-01-25T11:00:33;94893.53;;;1.26;100.00
61128;BME280;47013;42.664;23.242;2023-01-25T11:03:00;94901.72;;;1.21;100.00
61128;BME280;47013;42.664;23.242;2023-01-25T11:05:37;94899.72;;;1.18;98.75
61128;BME280;47013;42.664;23.242;2023-01-25T11:08:20;94893.19;;;1.28;99.79
61128;BME280;47013;42.664;23.242;2023-01-25T11:10:46;94883.94;;;1.25;99.20
61128;BME280;47013;42.664;23.242;2023-01-25T11:15:40;94888.16;;;1.35;100.00
61128;BME280;47013;42.664;23.242;2023-01-25T11:18:06;94884.63;;;1.43;99.61
61128;BME280;47013;42.664;23.242;2023-01-25T11:20:36;94876.69;;;1.55;99.26
61128;BME280;47013;42.664;23.242;2023-01-25T11:23:01;94876.19;;;1.62;98.28
61128;BME280;47013;42.664;23.242;2023-01-25T11:25:30;94870.00;;;1.70;97.99
61128;BME280;47013;42.664;23.242;2023-01-25T11:30:40;94872.03;;;1.73;94.61
61128;BME280;47013;42.664;23.242;2023-01-25T11:33:09;94872.03;;;1.73;94.80
61128;BME280;47013;42.664;23.242;2023-01-25T11:35:35;94862.75;;;1.70;93.72
61128;BME280;47013;42.664;23.242;2023-01-25T11:40:39;94853.41;;;1.76;93.68
61128;BME280;47013;42.664;23.242;2023-01-25T11:45:50;94838.81;;;1.74;93.06
61128;BME280;47013;42.664;23.242;2023-01-25T11:56:10;94828.19;;;1.65;92.44
61128;BME280;47013;42.664;23.242;2023-01-25T12:01:06;94819.66;;;1.72;92.77
61128;BME280;47013;42.664;23.242;2023-01-25T12:06:21;94821.47;;;1.80;91.05
61128;BME280;47013;42.664;23.242;2023-01-25T12:08:56;94817.22;;;1.79;91.70
61128;BME280;47013;42.664;23.242;2023-01-25T12:26:28;94812.41;;;1.72;89.83
61128;BME280;47013;42.664;23.242;2023-01-25T12:29:09;94807.00;;;1.60;90.83
61128;BME280;47013;42.664;23.242;2023-01-25T12:31:42;94799.72;;;1.69;91.11
61128;BME280;47013;42.664;23.242;2023-01-25T12:34:10;94802.97;;;1.75;90.84
61128;BME280;47013;42.664;23.242;2023-01-25T12:36:39;94795.00;;;1.87;91.26
61128;BME280;47013;42.664;23.242;2023-01-25T12:41:42;94788.31;;;1.93;90.56
61128;BME280;47013;42.664;23.242;2023-01-25T12:44:17;94786.88;;;1.96;90.53
61128;BME280;47013;42.664;23.242;2023-01-25T12:46:46;94783.22;;;2.00;89.50
61128;BME280;47013;42.664;23.242;2023-01-25T12:49:20;94783.22;;;2.00;88.58
61128;BME280;47013;42.664;23.242;2023-01-25T12:51:47;94780.28;;;1.93;89.05
61128;BME280;47013;42.664;23.242;2023-01-25T12:54:16;94778.03;;;1.83;89.07
61128;BME280;47013;42.664;23.242;2023-01-25T12:56:54;94784.03;;;1.80;90.25
61128;BME280;47013;42.664;23.242;2023-01-25T12:59:26;94788.06;;;1.86;89.65
61128;BME280;47013;42.664;23.242;2023-01-25T13:02:02;94780.53;;;1.67;89.01
61128;BME280;47013;42.664;23.242;2023-01-25T13:07:02;94766.81;;;1.69;90.00
61128;BME280;47013;42.664;23.242;2023-01-25T13:09:32;94761.69;;;1.64;90.52
61128;BME280;47013;42.664;23.242;2023-01-25T13:12:00;94762.13;;;1.66;90.48
61128;BME280;47013;42.664;23.242;2023-01-25T13:14:28;94767.94;;;1.68;90.67
61128;BME280;47013;42.664;23.242;2023-01-25T13:16:54;94756.19;;;1.81;90.50
61128;BME280;47013;42.664;23.242;2023-01-25T13:19:20;94757.19;;;1.76;90.03
61128;BME280;47013;42.664;23.242;2023-01-25T13:21:47;94753.06;;;1.79;89.54
61128;BME280;47013;42.664;23.242;2023-01-25T13:26:44;94756.19;;;1.81;90.30
61128;BME280;47013;42.664;23.242;2023-01-25T13:31:54;94758.56;;;1.83;89.05
61128;BME280;47013;42.664;23.242;2023-01-25T13:44:35;94768.31;;;1.78;89.91
61128;BME280;47013;42.664;23.242;2023-01-25T13:47:04;94774.59;;;1.83;89.78
61128;BME280;47013;42.664;23.242;2023-01-25T13:49:35;94777.25;;;1.83;90.63
61128;BME280;47013;42.664;23.242;2023-01-25T13:52:01;94769.09;;;1.79;89.42
61128;BME280;47013;42.664;23.242;2023-01-25T13:54:28;94775.78;;;1.73;88.34
61128;BME280;47013;42.664;23.242;2023-01-25T13:57:03;94770.81;;;1.63;88.70
61128;BME280;47013;42.664;23.242;2023-01-25T13:59:29;94766.81;;;1.57;88.64
61128;BME280;47013;42.664;23.242;2023-01-25T14:01:54;94770.44;;;1.52;88.89
61128;BME280;47013;42.664;23.242;2023-01-25T14:04:21;94771.28;;;1.65;90.11
61128;BME280;47013;42.664;23.242;2023-01-25T14:06:46;94767.31;;;1.71;90.02
61128;BME280;47013;42.664;23.242;2023-01-25T14:09:13;94771.09;;;1.70;90.10
61128;BME280;47013;42.664;23.242;2023-01-25T14:11:44;94768.88;;;1.72;89.35
61128;BME280;47013;42.664;23.242;2023-01-25T14:14:25;94774.78;;;1.77;88.52
61128;BME280;47013;42.664;23.242;2023-01-25T14:19:29;94771.03;;;1.58;88.13
61128;BME280;47013;42.664;23.242;2023-01-25T14:24:34;94762.25;;;1.57;88.63
61128;BME280;47013;42.664;23.242;2023-01-25T14:27:00;94766.53;;;1.50;88.55